createdAt,value
2023-03-14T00:00:59.678Z,12.52
2023-03-14T00:04:05.459Z,12.63
2023-03-14T00:07:08.255Z,13.75
2023-03-14T00:10:14.724Z,13.15
2023-03-14T00:13:17.560Z,12.48
2023-03-14T00:16:23.428Z,12.85
2023-03-14T00:19:26.226Z,13.03
2023-03-14T00:22:28.984Z,12.93
2023-03-14T00:25:31.895Z,12.75
2023-03-14T00:28:35.107Z,13.77
2023-03-14T00:31:38.262Z,13.45
2023-03-14T00:34:41.150Z,13.40
2023-03-14T00:37:43.910Z,12.32
2023-03-14T00:40:46.702Z,12.93
2023-03-14T00:43:50.472Z,12.00
2023-03-14T00:46:53.331Z,13.93
2023-03-14T00:49:56.199Z,12.80
2023-03-14T00:52:59.852Z,13.13
2023-03-14T00:56:07.394Z,13.98
2023-03-14T00:59:10.464Z,14.10
2023-03-14T01:02:13.565Z,13.88
2023-03-14T01:05:16.556Z,14.17
2023-03-14T01:08:19.509Z,11.98
2023-03-14T01:11:31.809Z,12.90
2023-03-14T01:14:34.810Z,13.57
2023-03-14T01:17:39.095Z,11.75
2023-03-14T01:20:41.856Z,10.43
2023-03-14T01:23:45.608Z,10.75
2023-03-14T01:26:48.313Z,12.57
2023-03-14T01:29:51.050Z,12.10
2023-03-14T01:32:55.567Z,11.50
2023-03-14T01:35:58.405Z,10.90
2023-03-14T01:39:01.238Z,10.85
2023-03-14T01:42:05.058Z,12.10
2023-03-14T01:45:46.555Z,10.80
2023-03-14T01:48:55.182Z,11.45
2023-03-14T01:52:27.504Z,11.90
2023-03-14T01:55:30.600Z,11.63
2023-03-14T01:58:35.750Z,11.90
2023-03-14T02:01:42.215Z,12.77
2023-03-14T02:04:45.375Z,12.15
2023-03-14T02:07:59.128Z,12.40
2023-03-14T02:11:09.459Z,11.68
2023-03-14T02:14:35.512Z,13.85
2023-03-14T02:18:05.318Z,13.75
2023-03-14T02:21:43.472Z,13.63
2023-03-14T02:25:17.909Z,13.77
2023-03-14T02:28:21.692Z,13.43
2023-03-14T02:31:27.894Z,12.40
2023-03-14T02:34:32.861Z,13.02
2023-03-14T02:37:56.586Z,13.75
2023-03-14T02:41:01.175Z,13.10
2023-03-14T02:44:05.714Z,14.85
2023-03-14T02:47:10.527Z,14.35
2023-03-14T02:50:21.527Z,14.00
2023-03-14T02:53:33.881Z,14.23
2023-03-14T02:56:41.490Z,14.60
2023-03-14T02:59:47.293Z,13.90
2023-03-14T03:02:54.496Z,12.80
2023-03-14T03:05:58.364Z,14.10
2023-03-14T03:09:01.834Z,12.35
2023-03-14T03:12:04.992Z,13.77
2023-03-14T03:15:08.828Z,13.18
2023-03-14T03:18:13.748Z,13.48
2023-03-14T03:21:20.005Z,12.73
2023-03-14T03:24:22.842Z,12.73
2023-03-14T03:27:25.578Z,12.80
2023-03-14T03:30:29.703Z,12.23
2023-03-14T03:33:32.763Z,13.27
2023-03-14T03:36:35.664Z,12.68
2023-03-14T03:39:38.527Z,11.70
2023-03-14T03:42:41.509Z,11.20
2023-03-14T03:45:46.240Z,11.23
2023-03-14T03:48:49.354Z,10.85
2023-03-14T03:51:53.218Z,9.98
2023-03-14T03:54:56.303Z,9.98
2023-03-14T03:57:59.116Z,9.93
2023-03-14T04:01:03.287Z,11.52
2023-03-14T04:04:06.392Z,12.85
2023-03-14T04:07:10.472Z,15.07
2023-03-14T04:10:13.772Z,12.90
2023-03-14T04:13:23.053Z,11.80
2023-03-14T04:16:28.598Z,11.60
2023-03-14T04:19:38.446Z,10.93
2023-03-14T04:22:44.472Z,10.85
2023-03-14T04:25:47.638Z,8.65
2023-03-14T04:28:51.428Z,7.03
2023-03-14T04:31:55.934Z,6.97
2023-03-14T04:34:58.827Z,6.22
2023-03-14T04:38:01.828Z,6.63
2023-03-14T04:41:07.449Z,6.75
2023-03-14T04:44:11.597Z,6.70
2023-03-14T04:47:14.595Z,6.95
2023-03-14T04:50:18.264Z,6.05
2023-03-14T04:53:22.732Z,7.03
2023-03-14T04:56:28.975Z,9.43
2023-03-14T04:59:32.500Z,9.07
2023-03-14T05:02:44.053Z,7.50
2023-03-14T05:06:09.923Z,6.80
2023-03-14T05:09:38.515Z,7.00
2023-03-14T05:12:47.189Z,8.88
2023-03-14T05:16:28.222Z,8.67
2023-03-14T05:19:39.965Z,8.77
2023-03-14T05:23:04.501Z,8.50
2023-03-14T05:26:25.737Z,9.13
2023-03-14T05:29:35.542Z,7.43
2023-03-14T05:32:58.306Z,7.93
2023-03-14T05:36:19.881Z,8.82
2023-03-14T05:39:45.640Z,7.65
2023-03-14T05:43:09.244Z,6.80
2023-03-14T05:46:38.272Z,6.85
2023-03-14T05:49:59.434Z,7.00
2023-03-14T05:53:31.441Z,7.40
2023-03-14T05:56:51.369Z,9.10
2023-03-14T06:00:13.156Z,8.48
2023-03-14T06:03:17.354Z,10.52
2023-03-14T06:06:23.369Z,8.20
2023-03-14T06:09:26.311Z,9.07
2023-03-14T06:12:33.050Z,8.25
2023-03-14T06:15:37.042Z,7.90
2023-03-14T06:18:40.322Z,7.95
2023-03-14T06:21:44.912Z,7.57
2023-03-14T06:24:48.031Z,7.50
2023-03-14T06:27:52.739Z,7.32
2023-03-14T06:30:57.226Z,8.82
2023-03-14T06:34:00.358Z,12.18
2023-03-14T06:37:06.909Z,10.03
2023-03-14T06:40:12.499Z,8.90
2023-03-14T06:43:35.613Z,9.32
2023-03-14T06:46:38.805Z,9.75
2023-03-14T06:49:42.005Z,10.63
2023-03-14T06:52:49.148Z,9.43
2023-03-14T06:55:57.186Z,8.68
2023-03-14T06:59:01.901Z,8.65
2023-03-14T07:02:12.086Z,9.38
2023-03-14T07:05:16.194Z,8.02
2023-03-14T07:08:21.249Z,7.77
2023-03-14T07:11:25.688Z,8.15
2023-03-14T07:14:28.763Z,7.65
2023-03-14T07:17:31.790Z,7.90
2023-03-14T07:20:35.333Z,7.72
2023-03-14T07:23:40.332Z,7.50
2023-03-14T07:26:44.517Z,7.63
2023-03-14T07:29:47.713Z,6.78
2023-03-14T07:32:50.878Z,8.00
2023-03-14T07:35:54.691Z,8.98
2023-03-14T07:38:57.741Z,12.57
2023-03-14T07:42:18.938Z,14.80
2023-03-14T07:45:43.104Z,6.72
2023-03-14T07:48:46.131Z,6.10
2023-03-14T07:51:50.180Z,6.53
2023-03-14T07:54:52.926Z,6.13
2023-03-14T07:57:56.563Z,5.45
2023-03-14T08:01:04.202Z,5.82
2023-03-14T08:04:07.090Z,8.63
2023-03-14T08:07:11.769Z,6.15
2023-03-14T08:10:23.475Z,5.90
2023-03-14T08:13:26.875Z,9.98
2023-03-14T08:16:31.549Z,7.13
2023-03-14T08:19:34.434Z,6.50
2023-03-14T08:22:37.181Z,5.00
2023-03-14T08:25:40.417Z,5.00
2023-03-14T08:28:43.398Z,5.47
2023-03-14T08:31:46.504Z,6.00
2023-03-14T08:34:49.828Z,4.88
2023-03-14T08:37:53.312Z,4.35
2023-03-14T08:40:58.697Z,4.90
2023-03-14T08:44:01.560Z,4.18
2023-03-14T08:47:04.650Z,5.55
2023-03-14T08:50:08.486Z,4.40
2023-03-14T08:53:13.434Z,5.25
2023-03-14T08:56:16.446Z,5.20
2023-03-14T08:59:19.674Z,4.80
2023-03-14T09:02:25.361Z,4.43
2023-03-14T09:05:28.269Z,4.28
2023-03-14T09:08:31.191Z,4.80
2023-03-14T09:11:34.288Z,4.40
2023-03-14T09:14:37.021Z,4.32
2023-03-14T09:17:39.828Z,4.72
2023-03-14T09:20:44.130Z,3.67
2023-03-14T09:23:48.117Z,4.10
2023-03-14T09:26:51.193Z,5.73
2023-03-14T09:29:54.281Z,4.80
2023-03-14T09:32:58.335Z,5.30
2023-03-14T09:36:01.375Z,5.78
2023-03-14T09:39:05.454Z,4.22
2023-03-14T09:42:14.430Z,4.80
2023-03-14T09:45:24.741Z,4.82
2023-03-14T09:48:34.590Z,3.90
2023-03-14T09:51:38.273Z,7.95
2023-03-14T09:55:04.881Z,5.13
2023-03-14T09:58:14.037Z,4.60
2023-03-14T10:01:21.822Z,4.40
2023-03-14T10:04:25.278Z,5.03
2023-03-14T10:07:31.684Z,4.03
2023-03-14T10:10:36.459Z,5.43
2023-03-14T10:13:50.324Z,4.30
2023-03-14T10:16:53.154Z,4.88
2023-03-14T10:19:58.729Z,5.70
2023-03-14T10:23:08.074Z,5.30
2023-03-14T10:26:19.231Z,4.78
2023-03-14T10:29:23.236Z,4.87
2023-03-14T10:32:35.522Z,4.30
2023-03-14T10:35:38.861Z,4.80
2023-03-14T10:38:42.340Z,4.15
2023-03-14T10:41:51.687Z,4.30
2023-03-14T10:45:23.815Z,4.87
2023-03-14T10:48:38.597Z,3.80
2023-03-14T10:51:42.169Z,4.20
2023-03-14T10:54:53.325Z,4.20
2023-03-14T10:57:56.893Z,3.80
2023-03-14T11:01:15.188Z,3.73
2023-03-14T11:04:21.319Z,3.92
2023-03-14T11:07:44.555Z,4.35
2023-03-14T11:10:52.457Z,3.75
2023-03-14T11:14:07.710Z,4.10
2023-03-14T11:17:27.013Z,4.10
2023-03-14T11:20:33.927Z,3.90
2023-03-14T11:23:51.310Z,3.72
2023-03-14T11:27:17.547Z,3.88
2023-03-14T11:30:26.614Z,4.18
2023-03-14T11:33:47.196Z,2.83
2023-03-14T11:37:12.964Z,3.20
2023-03-14T11:40:20.772Z,3.03
2023-03-14T11:43:44.145Z,3.00
2023-03-14T11:47:16.449Z,3.15
2023-03-14T11:50:26.857Z,2.63
2023-03-14T11:53:58.587Z,2.75
2023-03-14T11:57:22.233Z,3.00
2023-03-14T12:00:28.486Z,2.92
2023-03-14T12:03:44.873Z,3.22
2023-03-14T12:06:52.102Z,2.90
2023-03-14T12:09:56.279Z,3.10
2023-03-14T12:12:59.819Z,2.88
2023-03-14T12:16:22.806Z,2.88
2023-03-14T12:19:32.109Z,2.60
2023-03-14T12:22:43.201Z,2.20
2023-03-14T12:25:46.069Z,2.58
2023-03-14T12:29:11.500Z,2.70
2023-03-14T12:32:25.357Z,2.60
2023-03-14T12:35:46.030Z,2.53
2023-03-14T12:39:11.707Z,2.50
2023-03-14T12:42:18.357Z,3.38
2023-03-14T12:45:36.295Z,2.50
2023-03-14T12:48:40.817Z,2.78
2023-03-14T12:51:45.762Z,2.25
2023-03-14T12:55:01.841Z,2.50
2023-03-14T12:58:31.036Z,2.33
2023-03-14T13:01:35.941Z,2.25
2023-03-14T13:05:05.631Z,2.60
2023-03-14T13:08:10.627Z,2.50
2023-03-14T13:11:17.239Z,1.87
2023-03-14T13:14:20.293Z,2.20
2023-03-14T13:17:42.652Z,2.63
2023-03-14T13:20:52.654Z,2.67
2023-03-14T13:24:07.015Z,2.03
2023-03-14T13:27:20.569Z,1.80
2023-03-14T13:30:30.601Z,1.80
2023-03-14T13:33:35.537Z,2.70
2023-03-14T13:36:38.865Z,4.00
2023-03-14T13:39:41.845Z,3.55
2023-03-14T13:42:45.063Z,3.90
2023-03-14T13:45:58.515Z,4.57
2023-03-14T13:49:08.667Z,3.92
2023-03-14T13:52:38.774Z,4.15
2023-03-14T13:55:41.615Z,5.30
2023-03-14T13:58:44.938Z,4.07
2023-03-14T14:01:48.839Z,4.10
2023-03-14T14:04:52.009Z,3.10
2023-03-14T14:07:55.552Z,5.47
2023-03-14T14:11:03.065Z,4.45
2023-03-14T14:14:11.226Z,9.83
2023-03-14T14:17:19.588Z,12.43
2023-03-14T14:20:36.417Z,10.27
2023-03-14T14:23:39.895Z,8.00
2023-03-14T14:26:59.912Z,5.05
2023-03-14T14:30:06.408Z,4.27
2023-03-14T14:33:22.457Z,12.20
2023-03-14T14:36:40.845Z,10.07
2023-03-14T14:39:43.610Z,8.23
2023-03-14T14:42:47.924Z,6.00
2023-03-14T14:45:53.581Z,6.37
2023-03-14T14:48:58.536Z,6.40
2023-03-14T14:52:05.862Z,8.10
2023-03-14T14:55:20.844Z,10.43
2023-03-14T14:58:29.048Z,9.27
2023-03-14T15:01:42.977Z,7.87
2023-03-14T15:04:45.725Z,12.80
2023-03-14T15:07:48.724Z,8.20
2023-03-14T15:10:51.577Z,7.10
2023-03-14T15:13:55.752Z,5.53
2023-03-14T15:16:58.550Z,6.03
2023-03-14T15:20:01.325Z,7.10
2023-03-14T15:23:10.553Z,6.00
2023-03-14T15:26:17.082Z,6.70
2023-03-14T15:29:20.098Z,11.18
2023-03-14T15:32:23.181Z,9.70
2023-03-14T15:35:26.061Z,7.38
2023-03-14T15:38:28.980Z,7.50
2023-03-14T15:41:31.931Z,8.32
2023-03-14T15:44:35.191Z,12.18
2023-03-14T15:47:37.973Z,12.50
2023-03-14T15:50:41.684Z,13.50
2023-03-14T15:53:45.122Z,15.00
2023-03-14T15:56:47.993Z,14.82
2023-03-14T15:59:50.951Z,16.50
2023-03-14T16:02:53.844Z,15.40
2023-03-14T16:05:56.928Z,14.65
2023-03-14T16:09:00.749Z,14.75
2023-03-14T16:12:05.992Z,14.93
2023-03-14T16:15:10.317Z,17.30
2023-03-14T16:18:21.665Z,19.57
2023-03-14T16:21:25.037Z,24.60
2023-03-14T16:24:28.904Z,25.55
2023-03-14T16:27:32.080Z,22.48
2023-03-14T16:30:34.792Z,24.55
2023-03-14T16:33:39.241Z,22.60
2023-03-14T16:36:42.368Z,21.23
2023-03-14T16:40:10.438Z,17.27
2023-03-14T16:43:16.340Z,10.77
2023-03-14T16:46:19.900Z,11.32
2023-03-14T16:49:27.803Z,16.10
2023-03-14T16:52:30.761Z,32.30
2023-03-14T16:55:33.628Z,30.23
2023-03-14T16:58:36.882Z,29.90
2023-03-14T17:01:41.273Z,28.90
2023-03-14T17:04:44.075Z,28.70
2023-03-14T17:07:46.802Z,25.83
2023-03-14T17:10:53.749Z,24.30
2023-03-14T17:13:56.787Z,25.77
2023-03-14T17:17:02.313Z,35.25
2023-03-14T17:20:09.419Z,29.03
2023-03-14T17:23:12.867Z,29.73
2023-03-14T17:26:15.778Z,27.55
2023-03-14T17:29:19.012Z,34.03
2023-03-14T17:32:21.950Z,50.83
2023-03-14T17:35:24.677Z,48.53
2023-03-14T17:38:27.622Z,47.50
2023-03-14T17:41:30.585Z,46.10
2023-03-14T17:44:34.988Z,39.83
2023-03-14T17:47:38.221Z,25.48
2023-03-14T17:50:42.383Z,13.57
2023-03-14T17:53:45.617Z,9.45
2023-03-14T17:56:49.200Z,6.30
2023-03-14T17:59:53.996Z,6.40
2023-03-14T18:02:59.141Z,5.50
2023-03-14T18:06:11.077Z,3.70
2023-03-14T18:09:14.886Z,6.40
2023-03-14T18:12:17.737Z,7.88
2023-03-14T18:15:21.269Z,3.50
2023-03-14T18:18:25.212Z,3.35
2023-03-14T18:21:30.337Z,3.20
2023-03-14T18:24:33.686Z,2.45
2023-03-14T18:27:38.374Z,2.90
2023-03-14T18:30:43.620Z,2.10
2023-03-14T18:33:48.057Z,4.35
2023-03-14T18:36:51.056Z,2.90
2023-03-14T18:39:54.578Z,3.15
2023-03-14T18:42:57.682Z,2.28
2023-03-14T18:46:01.269Z,3.05
2023-03-14T18:49:04.932Z,3.08
2023-03-14T18:52:08.170Z,2.37
2023-03-14T18:55:11.243Z,4.05
2023-03-14T18:58:14.687Z,7.18
2023-03-14T19:01:18.182Z,6.10
2023-03-14T19:04:21.730Z,5.65
2023-03-14T19:07:25.091Z,2.47
2023-03-14T19:10:28.279Z,1.83
2023-03-14T19:13:33.051Z,1.83
2023-03-14T19:16:36.267Z,1.58
2023-03-14T19:19:39.549Z,1.50
2023-03-14T19:22:43.621Z,1.63
2023-03-14T19:25:46.380Z,1.42
2023-03-14T19:28:49.088Z,1.35
2023-03-14T19:31:54.144Z,1.48
2023-03-14T19:34:57.749Z,1.60
2023-03-14T19:38:00.871Z,1.60
2023-03-14T19:41:04.650Z,1.65
2023-03-14T19:44:08.237Z,1.77
2023-03-14T19:47:11.195Z,2.40
2023-03-14T19:50:14.397Z,2.50
2023-03-14T19:53:17.764Z,1.97
2023-03-14T19:56:24.478Z,1.65
2023-03-14T19:59:27.541Z,2.10
2023-03-14T20:02:31.695Z,1.95
2023-03-14T20:05:34.836Z,1.60
2023-03-14T20:08:38.388Z,1.60
2023-03-14T20:11:42.888Z,1.83
2023-03-14T20:14:45.986Z,1.83
2023-03-14T20:17:49.858Z,1.70
2023-03-14T20:20:57.061Z,2.10
2023-03-14T20:24:00.263Z,1.80
2023-03-14T20:27:04.361Z,1.65
2023-03-14T20:30:12.981Z,1.90
2023-03-14T20:33:20.174Z,1.80
2023-03-14T20:36:23.359Z,1.85
2023-03-14T20:39:26.146Z,1.80
2023-03-14T20:42:29.150Z,1.85
2023-03-14T20:45:31.893Z,2.17
2023-03-14T20:48:35.310Z,1.70
2023-03-14T20:51:38.427Z,2.10
2023-03-14T20:54:42.791Z,2.23
2023-03-14T20:57:46.572Z,1.80
2023-03-14T21:00:55.404Z,1.77
2023-03-14T21:03:58.689Z,2.00
2023-03-14T21:07:02.324Z,2.13
2023-03-14T21:10:05.705Z,1.90
2023-03-14T21:13:09.166Z,1.80
2023-03-14T21:16:11.977Z,1.98
2023-03-14T21:19:15.056Z,1.70
2023-03-14T21:22:19.148Z,2.13
2023-03-14T21:25:22.219Z,2.00
2023-03-14T21:28:25.410Z,1.77
2023-03-14T21:31:32.099Z,1.50
2023-03-14T21:34:35.114Z,1.60
2023-03-14T21:37:38.135Z,1.77
2023-03-14T21:40:41.487Z,1.90
2023-03-14T21:43:45.962Z,1.88
2023-03-14T21:46:49.835Z,1.98
2023-03-14T21:49:53.989Z,2.28
2023-03-14T21:52:57.250Z,2.40
2023-03-14T21:56:00.124Z,2.33
2023-03-14T21:59:03.854Z,2.50
2023-03-14T22:02:12.228Z,2.10
2023-03-14T22:05:17.375Z,1.55
2023-03-14T22:08:20.822Z,1.45
2023-03-14T22:11:25.089Z,1.20
2023-03-14T22:14:27.860Z,1.10
2023-03-14T22:17:30.689Z,0.88
2023-03-14T22:20:35.838Z,0.82
2023-03-14T22:23:38.574Z,1.27
2023-03-14T22:26:41.468Z,1.10
2023-03-14T22:29:44.481Z,1.30
2023-03-14T22:32:47.620Z,1.50
2023-03-14T22:35:51.908Z,1.85
2023-03-14T22:38:54.759Z,1.80
2023-03-14T22:41:57.785Z,1.27
2023-03-14T22:45:00.560Z,1.65
2023-03-14T22:48:03.446Z,1.90
2023-03-14T22:51:09.451Z,1.95
2023-03-14T22:54:12.282Z,2.58
2023-03-14T22:57:14.996Z,2.80
2023-03-14T23:00:18.864Z,4.13
2023-03-14T23:03:23.010Z,2.28
2023-03-14T23:06:25.770Z,2.13
2023-03-14T23:09:28.535Z,2.50
2023-03-14T23:12:31.271Z,1.80
2023-03-14T23:15:34.624Z,2.75
2023-03-14T23:18:39.695Z,4.30
2023-03-14T23:21:42.553Z,3.20
2023-03-14T23:24:48.963Z,3.45
2023-03-14T23:27:54.368Z,3.27
2023-03-14T23:30:58.592Z,2.47
2023-03-14T23:34:02.114Z,1.90
2023-03-14T23:37:05.138Z,1.63
2023-03-14T23:40:08.395Z,1.40
2023-03-14T23:43:12.725Z,2.00
2023-03-14T23:46:16.665Z,1.77
2023-03-14T23:49:20.331Z,1.75
2023-03-14T23:52:23.186Z,1.67
2023-03-14T23:55:26.319Z,1.40
2023-03-14T23:58:30.926Z,0.63
